Dream Angel — 3EEV — position and weather

sailwx.info

Track history (hours):
 
Tides and Currents Weather Stations Pressure Air Temp Water Temp Dewpoint Dewpoint Depression Visibility Wind Speed Wind Dir Waves Ship Positions

Dream Angel

Last reported at 2014-Sep-16 09:32 UTC. Time now 2014-Sep-22 14:12 UTC.
Position N 34°04' E 134°56'.

Length 187 m; draft 7.6 m.

Type: Ship. MMSI: 371820000.

Date/timePositionNaut miles runAvg speedWind from/ knotsBaromVisibWave heightAir tempDewpointWater temp
2014-Sep-16 09:32N 34°04' E 134°56'1414.2
2014-Sep-16 08:32N 34°18' E 134°58'1616.4
2014-Sep-16 07:33N 34°30' E 135°10'1312.6
2014-Sep-16 06:34N 34°41' E 135°18'0 0.5
2014-Sep-16 05:32N 34°42' E 135°17'0 0.0
2014-Sep-16 04:31N 34°42' E 135°17'0 0.0
2014-Sep-16 03:32N 34°42' E 135°17'0 0.0
2014-Sep-16 02:20N 34°42' E 135°17'0 0.0
2014-Sep-16 01:32N 34°42' E 135°17'0 0.0
2014-Sep-16 00:26N 34°42' E 135°17'0 0.0
2014-Sep-15 23:32N 34°42' E 135°17'0 0.0
2014-Sep-15 22:31N 34°42' E 135°17'0 0.0
2014-Sep-15 21:19N 34°42' E 135°17'0 0.0
2014-Sep-15 20:31N 34°42' E 135°17'0 0.0
2014-Sep-15 19:28N 34°42' E 135°17'0 0.0
2014-Sep-15 18:29N 34°42' E 135°17'0 0.0
2014-Sep-15 17:28N 34°42' E 135°17'0 0.0
2014-Sep-15 16:29N 34°42' E 135°17'0 0.0
2014-Sep-15 15:23N 34°42' E 135°17'0 0.0
2014-Sep-15 14:29N 34°42' E 135°17'0 0.0
2014-Sep-15 13:29N 34°42' E 135°17'0 0.0
2014-Sep-15 12:29N 34°42' E 135°17'0 0.0
2014-Sep-15 11:28N 34°42' E 135°17'0 0.0
2014-Sep-15 10:29N 34°42' E 135°17'0 0.0
2014-Sep-15 09:29N 34°42' E 135°17'0 0.0
2014-Sep-15 08:29N 34°42' E 135°17'0 0.0
2014-Sep-15 07:29N 34°42' E 135°17'0 0.0
2014-Sep-15 06:28N 34°42' E 135°17'0 0.0
2014-Sep-15 05:29N 34°42' E 135°17'0 0.0
2014-Sep-15 04:23N 34°42' E 135°17'0 0.0
2014-Sep-15 03:29N 34°42' E 135°17'0 0.0
2014-Sep-15 02:23N 34°42' E 135°17'1 1.4
2014-Sep-15 01:33N 34°41' E 135°18'4 4.2
2014-Sep-15 00:33N 34°37' E 135°15'0 0.0
2014-Sep-14 23:33N 34°37' E 135°15'0 0.0
2014-Sep-14 22:33N 34°37' E 135°15'0 0.0
2014-Sep-14 21:33N 34°37' E 135°15'0 0.0
2014-Sep-14 20:33N 34°37' E 135°15'0 0.0
2014-Sep-14 19:33N 34°37' E 135°15'0 0.0
2014-Sep-14 18:33N 34°37' E 135°15'0 0.0
2014-Sep-14 17:33N 34°37' E 135°15'0 0.0
2014-Sep-14 16:33N 34°37' E 135°15'0 0.0
2014-Sep-14 15:33N 34°37' E 135°15'0 0.0
2014-Sep-14 14:33N 34°37' E 135°15'0 0.1
2014-Sep-14 13:33N 34°37' E 135°15'0 0.1
2014-Sep-14 12:33N 34°37' E 135°15'0 0.1
2014-Sep-14 11:33N 34°37' E 135°15'0 0.1
2014-Sep-14 10:33N 34°37' E 135°15'4 4.3
2014-Sep-14 09:34N 34°34' E 135°13'1515.4
2014-Sep-14 08:33N 34°21' E 135°02'1211.6
2014-Sep-14 07:33N 34°09' E 135°00'1111.1
2014-Sep-14 06:33N 33°58' E 134°60'23113.6
2014-Sep-13 13:33N 34°33' E 139°36'1716.1
2014-Sep-13 12:30N 34°50' E 139°39'1515.9
2014-Sep-13 11:33N 35°05' E 139°42'1211.5
2014-Sep-13 10:33N 35°16' E 139°46'1111.3
2014-Sep-13 09:34N 35°27' E 139°42'1 0.7
2014-Sep-13 08:33N 35°27' E 139°41'0 0.0
2014-Sep-13 07:33N 35°27' E 139°41'0 0.0
2014-Sep-13 06:33N 35°27' E 139°41'0 0.0
2014-Sep-13 05:33N 35°27' E 139°41'0 0.0
2014-Sep-13 04:33N 35°27' E 139°41'0 0.0
2014-Sep-13 03:33N 35°27' E 139°41'1 1.2
2014-Sep-13 02:33N 35°26' E 139°42'1 1.4
2014-Sep-13 01:33N 35°25' E 139°41'0 0.0
2014-Sep-13 00:33N 35°25' E 139°41'0 0.0
2014-Sep-12 23:33N 35°25' E 139°41'0 0.0
2014-Sep-12 22:33N 35°25' E 139°41'1 1.4
2014-Sep-12 21:32N 35°25' E 139°42'0 0.1
2014-Sep-12 20:32N 35°25' E 139°42'0 0.1
2014-Sep-12 19:32N 35°25' E 139°42'0 0.0
2014-Sep-12 18:32N 35°25' E 139°42'0 0.0
2014-Sep-12 17:32N 35°25' E 139°42'0 0.0
2014-Sep-12 16:32N 35°25' E 139°42'0 0.0
2014-Sep-12 15:32N 35°25' E 139°42'0 0.0
2014-Sep-12 14:32N 35°25' E 139°42'0 0.0
2014-Sep-12 13:32N 35°25' E 139°42'0 0.1
2014-Sep-12 12:32N 35°25' E 139°42'0 0.0
2014-Sep-12 11:32N 35°25' E 139°42'0 0.0
2014-Sep-12 10:32N 35°25' E 139°42'0 0.0
2014-Sep-12 09:32N 35°25' E 139°42'1 1.2
2014-Sep-12 08:34N 35°25' E 139°43'1211.9
2014-Sep-12 07:33N 35°13' E 139°47'9 9.3
2014-Sep-12 06:33N 35°04' E 139°44'1010.1
2014-Sep-12 05:32N 34°54' E 139°40'1412.6
2014-Sep-12 04:25N 34°40' E 139°37'23513.9
2014-Sep-11 11:31N 34°03' E 134°56'1313.8
2014-Sep-11 10:33N 34°16' E 134°58'1515.4
2014-Sep-11 09:33N 34°28' E 135°10'1212.0
2014-Sep-11 08:33N 34°32' E 135°24'0 0.1
2014-Sep-11 07:30N 34°32' E 135°24'0 0.0
2014-Sep-11 06:30N 34°32' E 135°24'0 0.0
2014-Sep-11 05:24N 34°32' E 135°24'0 0.0
2014-Sep-11 04:30N 34°32' E 135°24'0 0.0
2014-Sep-11 02:30N 34°32' E 135°24'0 0.0
2014-Sep-11 01:30N 34°32' E 135°24'6 6.0
2014-Sep-11 00:33N 34°32' E 135°17'1615.9
2014-Sep-10 23:33N 34°21' E 135°02'1312.8
2014-Sep-10 22:33N 34°09' E 134°60'9 8.9
2014-Sep-10 21:32N 33°60' E 134°58'14814.3
2014-Sep-10 11:12N 32°42' E 132°26'50010.0
2014-Sep-08 09:26N 31°03' E 122°49'4 0.1
2014-Sep-06 17:22N 31°04' E 122°44'1213.1
2014-Sep-06 16:29N 31°05' E 122°30'1212.7
2014-Sep-06 15:33N 31°07' E 122°17'1514.2
2014-Sep-06 14:31N 31°14' E 122°02'1212.7
2014-Sep-06 13:33N 31°17' E 121°48'8 8.5
2014-Sep-06 12:33N 31°21' E 121°39'0 0.1
2014-Sep-06 11:19N 31°21' E 121°39'0 0.0
2014-Sep-06 10:25N 31°21' E 121°39'  
Track history (hours):
 
Tides and Currents Weather Stations Pressure Air Temp Water Temp Dewpoint Dewpoint Depression Visibility Wind Speed Wind Dir Waves Ship Positions

Dream Angel

Last reported at 2014-Sep-16 09:32 UTC. Time now 2014-Sep-22 14:12 UTC.
Position N 34°04' E 134°56'.

Length 187 m; draft 7.6 m.

Type: Ship. MMSI: 371820000.

Date/timePositionNaut miles runAvg speedWind from/ knotsBaromVisibWave heightAir tempDewpointWater temp
2014-Sep-16 09:32N 34°04' E 134°56'1414.2
2014-Sep-16 08:32N 34°18' E 134°58'1616.4
2014-Sep-16 07:33N 34°30' E 135°10'1312.6
2014-Sep-16 06:34N 34°41' E 135°18'0 0.5
2014-Sep-16 05:32N 34°42' E 135°17'0 0.0
2014-Sep-16 04:31N 34°42' E 135°17'0 0.0
2014-Sep-16 03:32N 34°42' E 135°17'0 0.0
2014-Sep-16 02:20N 34°42' E 135°17'0 0.0
2014-Sep-16 01:32N 34°42' E 135°17'0 0.0
2014-Sep-16 00:26N 34°42' E 135°17'0 0.0
2014-Sep-15 23:32N 34°42' E 135°17'0 0.0
2014-Sep-15 22:31N 34°42' E 135°17'0 0.0
2014-Sep-15 21:19N 34°42' E 135°17'0 0.0
2014-Sep-15 20:31N 34°42' E 135°17'0 0.0
2014-Sep-15 19:28N 34°42' E 135°17'0 0.0
2014-Sep-15 18:29N 34°42' E 135°17'0 0.0
2014-Sep-15 17:28N 34°42' E 135°17'0 0.0
2014-Sep-15 16:29N 34°42' E 135°17'0 0.0
2014-Sep-15 15:23N 34°42' E 135°17'0 0.0
2014-Sep-15 14:29N 34°42' E 135°17'0 0.0
2014-Sep-15 13:29N 34°42' E 135°17'0 0.0
2014-Sep-15 12:29N 34°42' E 135°17'0 0.0
2014-Sep-15 11:28N 34°42' E 135°17'0 0.0
2014-Sep-15 10:29N 34°42' E 135°17'0 0.0
2014-Sep-15 09:29N 34°42' E 135°17'0 0.0
2014-Sep-15 08:29N 34°42' E 135°17'0 0.0
2014-Sep-15 07:29N 34°42' E 135°17'0 0.0
2014-Sep-15 06:28N 34°42' E 135°17'0 0.0
2014-Sep-15 05:29N 34°42' E 135°17'0 0.0
2014-Sep-15 04:23N 34°42' E 135°17'0 0.0
2014-Sep-15 03:29N 34°42' E 135°17'0 0.0
2014-Sep-15 02:23N 34°42' E 135°17'1 1.4
2014-Sep-15 01:33N 34°41' E 135°18'4 4.2
2014-Sep-15 00:33N 34°37' E 135°15'0 0.0
2014-Sep-14 23:33N 34°37' E 135°15'0 0.0
2014-Sep-14 22:33N 34°37' E 135°15'0 0.0
2014-Sep-14 21:33N 34°37' E 135°15'0 0.0
2014-Sep-14 20:33N 34°37' E 135°15'0 0.0
2014-Sep-14 19:33N 34°37' E 135°15'0 0.0
2014-Sep-14 18:33N 34°37' E 135°15'0 0.0
2014-Sep-14 17:33N 34°37' E 135°15'0 0.0
2014-Sep-14 16:33N 34°37' E 135°15'0 0.0
2014-Sep-14 15:33N 34°37' E 135°15'0 0.0
2014-Sep-14 14:33N 34°37' E 135°15'0 0.1
2014-Sep-14 13:33N 34°37' E 135°15'0 0.1
2014-Sep-14 12:33N 34°37' E 135°15'0 0.1
2014-Sep-14 11:33N 34°37' E 135°15'0 0.1
2014-Sep-14 10:33N 34°37' E 135°15'4 4.3
2014-Sep-14 09:34N 34°34' E 135°13'1515.4
2014-Sep-14 08:33N 34°21' E 135°02'1211.6
2014-Sep-14 07:33N 34°09' E 135°00'1111.1
2014-Sep-14 06:33N 33°58' E 134°60'23113.6
2014-Sep-13 13:33N 34°33' E 139°36'1716.1
2014-Sep-13 12:30N 34°50' E 139°39'1515.9
2014-Sep-13 11:33N 35°05' E 139°42'1211.5
2014-Sep-13 10:33N 35°16' E 139°46'1111.3
2014-Sep-13 09:34N 35°27' E 139°42'1 0.7
2014-Sep-13 08:33N 35°27' E 139°41'0 0.0
2014-Sep-13 07:33N 35°27' E 139°41'0 0.0
2014-Sep-13 06:33N 35°27' E 139°41'0 0.0
2014-Sep-13 05:33N 35°27' E 139°41'0 0.0
2014-Sep-13 04:33N 35°27' E 139°41'0 0.0
2014-Sep-13 03:33N 35°27' E 139°41'1 1.2
2014-Sep-13 02:33N 35°26' E 139°42'1 1.4
2014-Sep-13 01:33N 35°25' E 139°41'0 0.0
2014-Sep-13 00:33N 35°25' E 139°41'0 0.0
2014-Sep-12 23:33N 35°25' E 139°41'0 0.0
2014-Sep-12 22:33N 35°25' E 139°41'1 1.4
2014-Sep-12 21:32N 35°25' E 139°42'0 0.1
2014-Sep-12 20:32N 35°25' E 139°42'0 0.1
2014-Sep-12 19:32N 35°25' E 139°42'0 0.0
2014-Sep-12 18:32N 35°25' E 139°42'0 0.0
2014-Sep-12 17:32N 35°25' E 139°42'0 0.0
2014-Sep-12 16:32N 35°25' E 139°42'0 0.0
2014-Sep-12 15:32N 35°25' E 139°42'0 0.0
2014-Sep-12 14:32N 35°25' E 139°42'0 0.0
2014-Sep-12 13:32N 35°25' E 139°42'0 0.1
2014-Sep-12 12:32N 35°25' E 139°42'0 0.0
2014-Sep-12 11:32N 35°25' E 139°42'0 0.0
2014-Sep-12 10:32N 35°25' E 139°42'0 0.0
2014-Sep-12 09:32N 35°25' E 139°42'1 1.2
2014-Sep-12 08:34N 35°25' E 139°43'1211.9
2014-Sep-12 07:33N 35°13' E 139°47'9 9.3
2014-Sep-12 06:33N 35°04' E 139°44'1010.1
2014-Sep-12 05:32N 34°54' E 139°40'1412.6
2014-Sep-12 04:25N 34°40' E 139°37'23513.9
2014-Sep-11 11:31N 34°03' E 134°56'1313.8
2014-Sep-11 10:33N 34°16' E 134°58'1515.4
2014-Sep-11 09:33N 34°28' E 135°10'1212.0
2014-Sep-11 08:33N 34°32' E 135°24'0 0.1
2014-Sep-11 07:30N 34°32' E 135°24'0 0.0
2014-Sep-11 06:30N 34°32' E 135°24'0 0.0
2014-Sep-11 05:24N 34°32' E 135°24'0 0.0
2014-Sep-11 04:30N 34°32' E 135°24'0 0.0
2014-Sep-11 02:30N 34°32' E 135°24'0 0.0
2014-Sep-11 01:30N 34°32' E 135°24'6 6.0
2014-Sep-11 00:33N 34°32' E 135°17'1615.9
2014-Sep-10 23:33N 34°21' E 135°02'1312.8
2014-Sep-10 22:33N 34°09' E 134°60'9 8.9
2014-Sep-10 21:32N 33°60' E 134°58'14814.3
2014-Sep-10 11:12N 32°42' E 132°26'50010.0
2014-Sep-08 09:26N 31°03' E 122°49'4 0.1
2014-Sep-06 17:22N 31°04' E 122°44'1213.1
2014-Sep-06 16:29N 31°05' E 122°30'1212.7
2014-Sep-06 15:33N 31°07' E 122°17'1514.2
2014-Sep-06 14:31N 31°14' E 122°02'1212.7
2014-Sep-06 13:33N 31°17' E 121°48'8 8.5
2014-Sep-06 12:33N 31°21' E 121°39'0 0.1
2014-Sep-06 11:19N 31°21' E 121°39'0 0.0
2014-Sep-06 10:25N 31°21' E 121°39'  

Dump ship's entire track history